createdAt,value
2018-08-06T00:01:32.215Z,100717.21
2018-08-06T00:04:00.763Z,100713.66
2018-08-06T00:09:02.532Z,100713.01
2018-08-06T00:11:31.830Z,100708.30
2018-08-06T00:14:00.343Z,100703.94
2018-08-06T00:16:30.888Z,100706.64
2018-08-06T00:18:59.398Z,100706.95
2018-08-06T00:21:27.955Z,100711.23
2018-08-06T00:23:56.449Z,100708.20
2018-08-06T00:26:25.528Z,100710.09
2018-08-06T00:28:55.020Z,100715.03
2018-08-06T00:31:23.518Z,100700.53
2018-08-06T00:33:55.979Z,100704.43
2018-08-06T00:36:26.831Z,100706.98
2018-08-06T00:38:55.431Z,100698.92
2018-08-06T00:41:24.045Z,100695.11
2018-08-06T00:43:52.652Z,100700.16
2018-08-06T00:46:21.309Z,100706.06
2018-08-06T00:48:51.400Z,100703.09
2018-08-06T00:51:19.949Z,100703.44
2018-08-06T00:53:49.712Z,100705.32
2018-08-06T00:56:18.447Z,100705.86
2018-08-06T00:58:47.354Z,100707.37
2018-08-06T01:01:15.906Z,100707.37
2018-08-06T01:03:44.463Z,100705.20
2018-08-06T01:06:12.983Z,100694.80
2018-08-06T01:08:49.514Z,100701.19
2018-08-06T01:11:18.004Z,100701.06
2018-08-06T01:13:47.915Z,100700.25
2018-08-06T01:16:16.471Z,100705.72
2018-08-06T01:18:45.031Z,100702.48
2018-08-06T01:21:13.527Z,100697.50
2018-08-06T01:23:42.071Z,100700.22
2018-08-06T01:26:10.933Z,100698.05
2018-08-06T01:28:39.482Z,100699.94
2018-08-06T01:31:08.121Z,100702.16
2018-08-06T01:33:41.799Z,100699.33
2018-08-06T01:36:10.370Z,100698.34
2018-08-06T01:38:40.840Z,100700.77
2018-08-06T01:41:09.859Z,100701.80
2018-08-06T01:43:38.489Z,100695.77
2018-08-06T01:46:07.060Z,100697.11
2018-08-06T01:48:35.927Z,100691.06
2018-08-06T01:51:04.458Z,100689.70
2018-08-06T01:53:32.998Z,100685.13
2018-08-06T01:56:04.485Z,100678.08
2018-08-06T01:58:33.371Z,100679.92
2018-08-06T02:01:01.883Z,100672.88
2018-08-06T02:03:30.547Z,100672.03
2018-08-06T02:05:59.108Z,100675.74
2018-08-06T02:08:27.603Z,100668.88
2018-08-06T02:10:59.127Z,100665.34
2018-08-06T02:13:27.886Z,100671.91
2018-08-06T02:15:56.455Z,100680.48
2018-08-06T02:18:25.011Z,100668.87
2018-08-06T02:20:53.573Z,100667.04
2018-08-06T02:23:24.231Z,100662.50
2018-08-06T02:25:52.771Z,100663.34
2018-08-06T02:28:21.325Z,100655.77
2018-08-06T02:30:49.876Z,100653.94
2018-08-06T02:33:18.462Z,100654.46
2018-08-06T02:35:46.971Z,100659.52
2018-08-06T02:38:15.635Z,100655.98
2018-08-06T02:40:44.523Z,100649.95
2018-08-06T02:43:13.411Z,100646.45
2018-08-06T02:45:42.100Z,100644.63
2018-08-06T02:48:11.704Z,100636.05
2018-08-06T02:50:40.210Z,100646.47
2018-08-06T02:53:14.360Z,100646.66
2018-08-06T02:55:43.165Z,100640.44
2018-08-06T02:58:11.771Z,100637.25
2018-08-06T03:00:40.458Z,100632.70
2018-08-06T03:03:09.079Z,100628.34
2018-08-06T03:05:37.659Z,100630.70
2018-08-06T03:10:40.027Z,100628.01
2018-08-06T03:13:13.539Z,100627.70
2018-08-06T03:15:42.103Z,100624.83
2018-08-06T03:18:10.750Z,100620.31
2018-08-06T03:20:39.274Z,100623.50
2018-08-06T03:23:07.845Z,100613.73
2018-08-06T03:25:42.400Z,100617.77
2018-08-06T03:28:10.925Z,100619.11
2018-08-06T03:30:39.467Z,100622.16
2018-08-06T03:33:12.047Z,100618.12
2018-08-06T03:35:40.608Z,100619.66
2018-08-06T03:38:09.202Z,100620.16
2018-08-06T03:40:37.756Z,100628.06
2018-08-06T03:43:11.895Z,100625.20
2018-08-06T03:45:40.435Z,100624.88
2018-08-06T03:48:09.083Z,100625.88
2018-08-06T03:53:12.083Z,100628.40
2018-08-06T03:55:40.689Z,100627.73
2018-08-06T03:58:09.541Z,100625.39
2018-08-06T04:00:41.748Z,100621.19
2018-08-06T04:03:10.309Z,100622.54
2018-08-06T04:05:40.100Z,100629.91
2018-08-06T04:08:08.682Z,100633.77
2018-08-06T04:10:37.272Z,100631.92
2018-08-06T04:13:06.150Z,100637.30
2018-08-06T04:15:34.710Z,100639.64
2018-08-06T04:20:30.266Z,100630.73
2018-08-06T04:23:02.212Z,100634.76
2018-08-06T04:25:30.792Z,100635.78
2018-08-06T04:28:03.513Z,100634.44
2018-08-06T04:30:32.404Z,100641.84
2018-08-06T04:33:01.008Z,100644.52
2018-08-06T04:35:29.716Z,100654.61
2018-08-06T04:37:58.923Z,100648.55
2018-08-06T04:40:32.212Z,100649.55
2018-08-06T04:43:00.830Z,100651.06
2018-08-06T04:45:29.406Z,100653.26
2018-08-06T04:47:58.295Z,100647.88
2018-08-06T04:50:30.686Z,100655.59
2018-08-06T04:52:59.206Z,100654.92
2018-08-06T04:55:27.830Z,100656.62
2018-08-06T04:57:56.318Z,100658.45
2018-08-06T05:00:24.923Z,100658.14
2018-08-06T05:02:56.876Z,100653.43
2018-08-06T05:05:25.491Z,100654.42
2018-08-06T05:07:54.017Z,100656.33
2018-08-06T05:10:22.525Z,100663.55
2018-08-06T05:12:57.217Z,100668.75
2018-08-06T05:15:25.835Z,100667.41
2018-08-06T05:17:58.303Z,100657.99
2018-08-06T05:20:26.898Z,100664.39
2018-08-06T05:22:55.770Z,100667.22
2018-08-06T05:25:24.392Z,100666.73
2018-08-06T05:27:52.903Z,100666.91
2018-08-06T05:30:21.843Z,100668.25
2018-08-06T05:32:51.001Z,100673.92
2018-08-06T05:35:20.552Z,100667.87
2018-08-06T05:37:49.731Z,100670.06
2018-08-06T05:40:25.111Z,100668.05
2018-08-06T05:42:53.703Z,100668.36
2018-08-06T05:45:22.252Z,100666.38
2018-08-06T05:47:50.820Z,100671.44
2018-08-06T05:50:21.831Z,100677.16
2018-08-06T05:52:50.488Z,100679.67
2018-08-06T05:55:19.137Z,100683.39
2018-08-06T05:57:47.996Z,100673.79
2018-08-06T06:00:18.609Z,100671.78
2018-08-06T06:02:47.783Z,100666.73
2018-08-06T06:05:16.288Z,100661.00
2018-08-06T06:07:44.805Z,100662.34
2018-08-06T06:10:14.796Z,100667.87
2018-08-06T06:15:17.536Z,100668.70
2018-08-06T06:17:46.193Z,100663.31
2018-08-06T06:20:23.408Z,100672.23
2018-08-06T06:22:55.607Z,100670.20
2018-08-06T06:25:24.338Z,100672.55
2018-08-06T06:27:52.903Z,100669.98
2018-08-06T06:30:21.810Z,100666.41
2018-08-06T06:32:50.548Z,100667.74
2018-08-06T06:35:19.112Z,100663.34
2018-08-06T06:37:47.977Z,100663.14
2018-08-06T06:40:18.710Z,100662.95
2018-08-06T06:42:47.450Z,100662.38
2018-08-06T06:47:52.029Z,100656.25
2018-08-06T06:50:20.559Z,100654.34
2018-08-06T06:52:49.222Z,100648.14
2018-08-06T06:55:19.852Z,100640.39
2018-08-06T06:57:48.420Z,100643.25
2018-08-06T07:00:17.048Z,100639.52
2018-08-06T07:02:45.665Z,100640.65
2018-08-06T07:05:14.324Z,100642.59
2018-08-06T07:07:44.298Z,100643.87
2018-08-06T07:10:13.572Z,100639.29
2018-08-06T07:12:44.165Z,100636.90
2018-08-06T07:15:15.203Z,100627.88
2018-08-06T07:17:46.277Z,100635.59
2018-08-06T07:20:15.692Z,100632.34
2018-08-06T07:22:44.276Z,100623.17
2018-08-06T07:25:13.288Z,100626.98
2018-08-06T07:27:42.865Z,100625.13
2018-08-06T07:30:14.198Z,100624.13
2018-08-06T07:32:44.041Z,100618.50
2018-08-06T07:35:15.803Z,100626.05
2018-08-06T07:37:44.539Z,100621.19
2018-08-06T07:40:15.278Z,100621.59
2018-08-06T07:42:43.945Z,100612.84
2018-08-06T07:45:16.391Z,100618.30
2018-08-06T07:47:47.525Z,100615.05
2018-08-06T07:50:17.454Z,100614.84
2018-08-06T07:52:46.776Z,100615.30
2018-08-06T07:55:15.475Z,100608.84
2018-08-06T07:57:44.715Z,100609.34
2018-08-06T08:00:16.696Z,100608.95
2018-08-06T08:02:49.044Z,100604.25
2018-08-06T08:05:18.558Z,100596.94
2018-08-06T08:07:48.117Z,100598.30
2018-08-06T08:10:21.979Z,100601.74
2018-08-06T08:12:50.631Z,100598.63
2018-08-06T08:15:26.730Z,100596.58
2018-08-06T08:17:56.873Z,100594.24
2018-08-06T08:20:25.824Z,100590.79
2018-08-06T08:22:54.464Z,100584.52
2018-08-06T08:25:23.629Z,100579.02
2018-08-06T08:27:52.303Z,100580.17
2018-08-06T08:30:21.119Z,100580.05
2018-08-06T08:32:49.766Z,100574.01
2018-08-06T08:35:18.708Z,100573.16
2018-08-06T08:37:47.344Z,100566.94
2018-08-06T08:40:18.877Z,100566.01
2018-08-06T08:42:48.691Z,100562.06
2018-08-06T08:45:18.007Z,100555.05
2018-08-06T08:47:46.839Z,100555.39
2018-08-06T08:50:16.922Z,100562.14
2018-08-06T08:52:45.854Z,100559.18
2018-08-06T08:55:15.879Z,100554.98
2018-08-06T08:57:44.630Z,100556.41
2018-08-06T09:00:23.144Z,100548.81
2018-08-06T09:02:52.615Z,100553.92
2018-08-06T09:05:21.519Z,100555.06
2018-08-06T09:07:51.112Z,100547.80
2018-08-06T09:10:20.226Z,100541.82
2018-08-06T09:12:48.917Z,100543.91
2018-08-06T09:15:22.106Z,100535.16
2018-08-06T09:20:48.567Z,100529.04
2018-08-06T09:23:17.075Z,100528.48
2018-08-06T09:25:45.593Z,100530.83
2018-08-06T09:28:14.190Z,100532.42
2018-08-06T09:30:42.757Z,100529.89
2018-08-06T09:33:11.342Z,100530.62
2018-08-06T09:35:41.224Z,100521.60
2018-08-06T09:38:11.177Z,100513.86
2018-08-06T09:40:39.855Z,100513.39
2018-08-06T09:43:08.733Z,100507.41
2018-08-06T09:45:37.323Z,100505.84
2018-08-06T09:48:06.384Z,100501.79
2018-08-06T09:50:35.236Z,100509.87
2018-08-06T09:53:04.058Z,100501.45
2018-08-06T09:55:33.359Z,100493.66
2018-08-06T09:58:03.914Z,100498.34
2018-08-06T10:00:37.810Z,100490.56
2018-08-06T10:03:06.758Z,100490.23
2018-08-06T10:05:35.672Z,100483.77
2018-08-06T10:08:04.995Z,100481.23
2018-08-06T10:10:33.554Z,100472.19
2018-08-06T10:13:02.742Z,100471.69
2018-08-06T10:15:31.576Z,100467.45
2018-08-06T10:18:07.165Z,100462.69
2018-08-06T10:20:43.913Z,100459.52
2018-08-06T10:23:14.860Z,100455.87
2018-08-06T10:25:47.222Z,100455.97
2018-08-06T10:28:18.573Z,100457.48
2018-08-06T10:30:47.213Z,100454.50
2018-08-06T10:33:15.725Z,100450.73
2018-08-06T10:35:46.643Z,100447.19
2018-08-06T10:38:21.793Z,100436.86
2018-08-06T10:40:53.025Z,100436.11
2018-08-06T10:43:25.190Z,100434.19
2018-08-06T10:45:54.067Z,100425.12
2018-08-06T10:48:22.710Z,100421.72
2018-08-06T10:50:51.580Z,100423.95
2018-08-06T10:53:20.194Z,100422.50
2018-08-06T10:55:48.772Z,100417.88
2018-08-06T10:58:18.523Z,100415.67
2018-08-06T11:00:47.095Z,100406.46
2018-08-06T11:03:15.723Z,100408.73
2018-08-06T11:05:44.628Z,100410.63
2018-08-06T11:08:19.887Z,100414.27
2018-08-06T11:10:48.511Z,100404.33
2018-08-06T11:13:17.340Z,100405.71
2018-08-06T11:15:57.207Z,100396.81
2018-08-06T11:18:25.751Z,100392.38
2018-08-06T11:20:57.784Z,100388.72
2018-08-06T11:23:26.317Z,100389.58
2018-08-06T11:25:54.951Z,100381.86
2018-08-06T11:28:23.585Z,100380.59
2018-08-06T11:30:52.116Z,100369.71
2018-08-06T11:33:20.662Z,100378.97
2018-08-06T11:35:52.593Z,100376.57
2018-08-06T11:38:21.752Z,100378.46
2018-08-06T11:40:50.276Z,100376.26
2018-08-06T11:43:21.648Z,100366.36
2018-08-06T11:45:50.499Z,100370.12
2018-08-06T11:48:19.104Z,100359.59
2018-08-06T11:50:47.737Z,100359.63
2018-08-06T11:53:17.872Z,100354.23
2018-08-06T11:55:46.496Z,100355.77
2018-08-06T11:58:17.699Z,100354.09
2018-08-06T12:00:46.277Z,100350.16
2018-08-06T12:03:14.918Z,100352.56
2018-08-06T12:05:46.377Z,100341.52
2018-08-06T12:08:16.908Z,100346.69
2018-08-06T12:10:49.967Z,100341.14
2018-08-06T12:13:27.185Z,100342.51
2018-08-06T12:16:03.289Z,100333.59
2018-08-06T12:21:33.482Z,100330.44
2018-08-06T12:24:05.007Z,100336.66
2018-08-06T12:26:34.120Z,100324.22
2018-08-06T12:29:03.154Z,100322.92
2018-08-06T12:31:31.838Z,100323.42
2018-08-06T12:34:01.029Z,100311.20
2018-08-06T12:36:29.683Z,100313.77
2018-08-06T12:39:15.626Z,100307.44
2018-08-06T12:41:44.456Z,100308.50
2018-08-06T12:44:14.636Z,100310.94
2018-08-06T12:46:43.371Z,100308.36
2018-08-06T12:49:12.117Z,100303.92
2018-08-06T12:51:40.993Z,100300.48
2018-08-06T12:54:10.003Z,100290.40
2018-08-06T12:56:38.650Z,100299.98
2018-08-06T12:59:07.511Z,100301.56
2018-08-06T13:04:07.342Z,100285.51
2018-08-06T13:06:35.905Z,100291.39
2018-08-06T13:09:08.028Z,100283.63
2018-08-06T13:11:36.567Z,100272.27
2018-08-06T13:14:06.286Z,100269.75
2018-08-06T13:16:35.177Z,100277.98
2018-08-06T13:19:03.879Z,100276.33
2018-08-06T13:21:32.725Z,100269.20
2018-08-06T13:24:01.775Z,100272.08
2018-08-06T13:26:30.668Z,100265.07
2018-08-06T13:28:59.263Z,100272.48
2018-08-06T13:31:27.792Z,100263.09
2018-08-06T13:33:56.672Z,100255.26
2018-08-06T13:36:25.247Z,100249.78
2018-08-06T13:38:53.864Z,100251.59
2018-08-06T13:41:22.682Z,100254.94
2018-08-06T13:43:51.355Z,100242.59
2018-08-06T13:46:19.933Z,100245.52
2018-08-06T13:48:48.893Z,100243.64
2018-08-06T13:51:17.587Z,100239.50
2018-08-06T13:53:46.217Z,100239.42
2018-08-06T13:56:15.324Z,100229.25
2018-08-06T13:58:43.863Z,100232.30
2018-08-06T14:01:12.680Z,100221.54
2018-08-06T14:03:41.714Z,100215.23
2018-08-06T14:06:10.286Z,100216.34
2018-08-06T14:08:38.820Z,100208.03
2018-08-06T14:11:09.746Z,100201.06
2018-08-06T14:13:38.310Z,100203.00
2018-08-06T14:16:07.077Z,100203.66
2018-08-06T14:18:35.892Z,100198.50
2018-08-06T14:21:04.619Z,100189.77
2018-08-06T14:23:33.171Z,100189.34
2018-08-06T14:26:04.229Z,100180.53
2018-08-06T14:28:33.252Z,100178.02
2018-08-06T14:31:01.893Z,100173.11
2018-08-06T14:33:31.269Z,100171.67
2018-08-06T14:35:59.796Z,100168.36
2018-08-06T14:38:28.492Z,100157.06
2018-08-06T14:40:58.439Z,100151.67
2018-08-06T14:43:26.966Z,100147.67
2018-08-06T14:45:55.539Z,100140.19
2018-08-06T14:48:24.229Z,100143.17
2018-08-06T14:50:52.821Z,100131.77
2018-08-06T14:53:21.858Z,100127.59
2018-08-06T14:55:50.764Z,100128.14
2018-08-06T14:58:19.634Z,100124.80
2018-08-06T15:00:48.767Z,100120.72
2018-08-06T15:03:17.441Z,100117.14
2018-08-06T15:05:45.987Z,100118.52
2018-08-06T15:08:15.053Z,100113.06
2018-08-06T15:10:43.801Z,100112.20
2018-08-06T15:13:12.664Z,100110.95
2018-08-06T15:15:41.520Z,100104.35
2018-08-06T15:18:10.132Z,100097.88
2018-08-06T15:20:39.150Z,100098.44
2018-08-06T15:23:08.712Z,100088.45
2018-08-06T15:25:37.481Z,100089.86
2018-08-06T15:28:06.397Z,100090.71
2018-08-06T15:30:35.225Z,100089.89
2018-08-06T15:33:04.128Z,100088.13
2018-08-06T15:35:32.934Z,100078.83
2018-08-06T15:38:03.294Z,100071.30
2018-08-06T15:40:32.384Z,100068.17
2018-08-06T15:43:01.258Z,100065.20
2018-08-06T15:45:30.616Z,100068.41
2018-08-06T15:47:59.179Z,100065.49
2018-08-06T15:50:27.790Z,100067.40
2018-08-06T15:52:56.670Z,100071.09
2018-08-06T15:55:25.188Z,100070.23
2018-08-06T15:57:53.732Z,100065.77
2018-08-06T16:00:23.626Z,100063.01
2018-08-06T16:02:52.239Z,100054.36
2018-08-06T16:05:20.821Z,100049.31
2018-08-06T16:07:51.031Z,100049.08
2018-08-06T16:10:19.596Z,100049.89
2018-08-06T16:12:48.142Z,100046.05
2018-08-06T16:15:17.421Z,100047.79
2018-08-06T16:17:46.221Z,100041.07
2018-08-06T16:20:16.344Z,100038.27
2018-08-06T16:22:45.266Z,100036.37
2018-08-06T16:25:14.382Z,100032.98
2018-08-06T16:27:43.079Z,100034.67
2018-08-06T16:30:15.504Z,100026.02
2018-08-06T16:32:44.944Z,100029.45
2018-08-06T16:35:13.621Z,100024.65
2018-08-06T16:37:42.717Z,100033.27
2018-08-06T16:40:11.974Z,100029.67
2018-08-06T16:42:40.597Z,100028.91
2018-08-06T16:45:10.116Z,100025.13
2018-08-06T16:47:39.135Z,100022.55
2018-08-06T16:50:09.754Z,100026.25
2018-08-06T16:52:38.729Z,100016.17
2018-08-06T16:55:07.851Z,100016.37
2018-08-06T16:57:36.561Z,100017.60
2018-08-06T17:00:11.877Z,100027.20
2018-08-06T17:02:40.499Z,100024.11
2018-08-06T17:05:10.999Z,100028.21
2018-08-06T17:07:39.996Z,100026.56
2018-08-06T17:10:11.300Z,100025.75
2018-08-06T17:12:40.019Z,100022.75
2018-08-06T17:15:10.107Z,100026.56
2018-08-06T17:17:38.835Z,100025.45
2018-08-06T17:20:12.167Z,100021.88
2018-08-06T17:22:41.189Z,100021.00
2018-08-06T17:25:11.027Z,100014.09
2018-08-06T17:27:40.249Z,100014.62
2018-08-06T17:30:09.810Z,100012.70
2018-08-06T17:32:38.953Z,100015.09
2018-08-06T17:35:09.251Z,100010.05
2018-08-06T17:38:17.280Z,100011.84
2018-08-06T17:40:46.011Z,100008.23
2018-08-06T17:43:14.758Z,100014.63
2018-08-06T17:45:43.698Z,100019.38
2018-08-06T17:48:12.285Z,100019.95
2018-08-06T17:50:40.930Z,100021.04
2018-08-06T17:53:09.579Z,100022.72
2018-08-06T17:55:38.239Z,100020.75
2018-08-06T17:58:07.279Z,100026.45
2018-08-06T18:00:36.079Z,100030.69
2018-08-06T18:05:27.647Z,100032.81
2018-08-06T18:07:56.188Z,100033.25
2018-08-06T18:10:24.836Z,100036.02
2018-08-06T18:12:53.769Z,100033.35
2018-08-06T18:15:22.411Z,100035.39
2018-08-06T18:17:52.058Z,100035.58
2018-08-06T18:20:21.029Z,100040.48
2018-08-06T18:22:49.691Z,100038.94
2018-08-06T18:25:19.502Z,100041.42
2018-08-06T18:27:49.624Z,100047.45
2018-08-06T18:30:20.350Z,100046.84
2018-08-06T18:32:48.996Z,100051.74
2018-08-06T18:35:18.690Z,100052.28
2018-08-06T18:37:47.505Z,100053.55
2018-08-06T18:40:17.773Z,100056.43
2018-08-06T18:42:46.758Z,100059.12
2018-08-06T18:45:20.973Z,100056.05
2018-08-06T18:47:50.311Z,100056.33
2018-08-06T18:50:19.561Z,100052.44
2018-08-06T18:52:48.795Z,100044.92
2018-08-06T18:55:17.668Z,100050.45
2018-08-06T18:57:47.164Z,100049.16
2018-08-06T19:00:19.423Z,100048.64
2018-08-06T19:02:48.068Z,100056.12
2018-08-06T19:05:16.731Z,100059.64
2018-08-06T19:07:45.357Z,100057.88
2018-08-06T19:10:14.328Z,100061.84
2018-08-06T19:12:48.182Z,100061.61
2018-08-06T19:15:16.860Z,100064.34
2018-08-06T19:17:50.890Z,100060.97
2018-08-06T19:20:19.550Z,100067.14
2018-08-06T19:22:48.380Z,100060.73
2018-08-06T19:25:22.060Z,100062.92
2018-08-06T19:27:50.587Z,100066.38
2018-08-06T19:30:19.487Z,100062.22
2018-08-06T19:32:48.100Z,100070.83
2018-08-06T19:35:16.632Z,100064.86
2018-08-06T19:37:47.215Z,100062.91
2018-08-06T19:40:16.172Z,100066.12
2018-08-06T19:42:49.817Z,100066.77
2018-08-06T19:45:19.020Z,100066.05
2018-08-06T19:47:47.524Z,100069.73
2018-08-06T19:50:21.375Z,100069.42
2018-08-06T19:52:50.342Z,100072.15
2018-08-06T19:55:24.081Z,100074.39
2018-08-06T19:57:52.909Z,100079.38
2018-08-06T20:00:22.059Z,100083.20
2018-08-06T20:02:50.573Z,100078.25
2018-08-06T20:05:19.300Z,100085.75
2018-08-06T20:07:48.290Z,100080.23
2018-08-06T20:10:17.299Z,100082.69
2018-08-06T20:12:45.950Z,100076.51
2018-08-06T20:15:17.136Z,100090.12
2018-08-06T20:17:46.002Z,100082.97
2018-08-06T20:20:14.596Z,100084.57
2018-08-06T20:22:44.109Z,100088.30
2018-08-06T20:25:15.400Z,100084.14
2018-08-06T20:27:44.303Z,100080.34
2018-08-06T20:30:14.379Z,100077.34
2018-08-06T20:32:42.972Z,100078.94
2018-08-06T20:35:13.498Z,100082.64
2018-08-06T20:37:42.488Z,100081.97
2018-08-06T20:40:11.772Z,100074.53
2018-08-06T20:42:41.746Z,100084.36
2018-08-06T20:45:13.365Z,100082.05
2018-08-06T20:47:42.900Z,100082.94
2018-08-06T20:50:14.501Z,100084.16
2018-08-06T20:52:43.451Z,100082.20
2018-08-06T20:55:12.417Z,100087.59
2018-08-06T20:57:41.560Z,100088.80
2018-08-06T21:00:13.591Z,100090.61
2018-08-06T21:02:42.366Z,100100.08
2018-08-06T21:05:10.915Z,100093.28
2018-08-06T21:07:40.482Z,100092.61
2018-08-06T21:10:10.589Z,100095.32
2018-08-06T21:12:39.601Z,100093.36
2018-08-06T21:15:10.521Z,100104.70
2018-08-06T21:17:39.437Z,100092.83
2018-08-06T21:20:09.840Z,100102.03
2018-08-06T21:22:38.510Z,100101.05
2018-08-06T21:25:10.667Z,100103.59
2018-08-06T21:27:40.289Z,100104.17
2018-08-06T21:30:11.235Z,100108.34
2018-08-06T21:32:42.746Z,100102.81
2018-08-06T21:35:11.347Z,100103.89
2018-08-06T21:37:39.891Z,100103.77
2018-08-06T21:40:09.325Z,100110.70
2018-08-06T21:42:38.343Z,100107.09
2018-08-06T21:45:06.999Z,100109.87
2018-08-06T21:49:56.011Z,100117.88
2018-08-06T21:52:24.651Z,100112.70
2018-08-06T21:54:53.490Z,100110.83
2018-08-06T21:57:22.019Z,100101.59
2018-08-06T21:59:50.630Z,100101.19
2018-08-06T22:02:19.244Z,100107.36
2018-08-06T22:04:48.166Z,100104.98
2018-08-06T22:07:16.819Z,100102.07
2018-08-06T22:09:45.510Z,100106.95
2018-08-06T22:12:14.907Z,100111.86
2018-08-06T22:14:43.617Z,100110.27
2018-08-06T22:17:12.175Z,100109.84
2018-08-06T22:19:41.066Z,100106.61
2018-08-06T22:22:10.457Z,100103.80
2018-08-06T22:24:39.329Z,100099.12
2018-08-06T22:27:08.125Z,100101.22
2018-08-06T22:29:37.733Z,100093.08
2018-08-06T22:32:06.425Z,100089.11
2018-08-06T22:34:35.025Z,100084.13
2018-08-06T22:37:03.963Z,100086.01
2018-08-06T22:39:32.545Z,100083.81
2018-08-06T22:42:03.278Z,100086.53
2018-08-06T22:44:32.054Z,100078.39
2018-08-06T22:47:00.648Z,100078.61
2018-08-06T22:49:29.654Z,100076.94
2018-08-06T22:51:58.331Z,100077.07
2018-08-06T22:54:26.829Z,100078.05
2018-08-06T22:56:55.337Z,100085.19
2018-08-06T22:59:24.137Z,100083.16
2018-08-06T23:01:52.666Z,100078.47
2018-08-06T23:04:21.185Z,100075.28
2018-08-06T23:06:50.065Z,100074.05
2018-08-06T23:09:18.887Z,100078.02
2018-08-06T23:11:47.502Z,100066.34
2018-08-06T23:14:16.238Z,100064.39
2018-08-06T23:16:44.855Z,100060.13
2018-08-06T23:33:39.560Z,100051.68
2018-08-06T23:36:08.290Z,100048.89
2018-08-06T23:38:40.038Z,100046.92
2018-08-06T23:41:10.065Z,100046.18
2018-08-06T23:43:38.636Z,100053.17
2018-08-06T23:46:07.224Z,100046.18
2018-08-06T23:54:29.230Z,100050.50
2018-08-06T23:57:02.951Z,100041.98
2018-08-06T23:59:42.343Z,100045.13
